Observation data for Goodlett on 09/12/2017      Previous  Date       Current Mesonet Observations  Soil Data  Daily Summary Page  Observations in Plain Language
KGDS 120500Z 15005KT 20/10 A3005 RMK A01 T02040103  RH  053%=      5-min Rain = 0
KGDS 120505Z 14005KT 20/11 A3005 RMK A01 T02030105  RH  054%=      5-min Rain = 0
KGDS 120510Z 15005KT 20/10 A3005 RMK A01 T02010104  RH  055%=      5-min Rain = 0
KGDS 120515Z 15004KT 20/10 A3004 RMK A01 T02000104  RH  055%=      5-min Rain = 0
KGDS 120520Z 14005KT 20/11 A3004 RMK A01 T02010105  RH  055%=      5-min Rain = 0
KGDS 120525Z 14004KT 20/10 A3004 RMK A01 T02000104  RH  055%=      5-min Rain = 0
KGDS 120530Z 14004KT 20/10 A3004 RMK A01 T02000103  RH  055%=      5-min Rain = 0
KGDS 120535Z 15004KT 20/10 A3004 RMK A01 T02000104  RH  055%=      5-min Rain = 0
KGDS 120540Z 15003KT 20/10 A3004 RMK A01 T02020104  RH  054%=      5-min Rain = 0
KGDS 120545Z 17003KT 20/10 A3004 RMK A01 T02030104  RH  054%=      5-min Rain = 0
KGDS 120550Z 18002KT 20/10 A3004 RMK A01 T02030104  RH  054%=      5-min Rain = 0
KGDS 120555Z 19003KT 20/11 A3004 RMK A01 T02030106  RH  054%=      5-min Rain = 0
KGDS 120600Z 19003KT 20/11 A3004 RMK A01 T02030106  RH  055%=      5-min Rain = 0
KGDS 120605Z 22003KT 20/11 A3004 RMK A01 T02020105  RH  055%=      5-min Rain = 0
KGDS 120610Z 24004KT 20/11 A3004 RMK A01 T01960106  RH  057%=      5-min Rain = 0
KGDS 120615Z 24004KT 19/11 A3004 RMK A01 T01910107  RH  059%=      5-min Rain = 0
KGDS 120620Z 25004KT 19/11 A3004 RMK A01 T01880107  RH  060%=      5-min Rain = 0
KGDS 120625Z 23003KT 19/11 A3004 RMK A01 T01860107  RH  061%=      5-min Rain = 0
KGDS 120630Z 21002KT 19/11 A3004 RMK A01 T01880106  RH  060%=      5-min Rain = 0
KGDS 120635Z 20002KT 19/11 A3004 RMK A01 T01930106  RH  058%=      5-min Rain = 0
KGDS 120640Z 18002KT 20/11 A3004 RMK A01 T01990105  RH  056%=      5-min Rain = 0
KGDS 120645Z 17002KT 20/10 A3004 RMK A01 T02020104  RH  054%=      5-min Rain = 0
KGDS 120650Z 16002KT 20/10 A3004 RMK A01 T02040103  RH  053%=      5-min Rain = 0
KGDS 120655Z 16002KT 20/10 A3004 RMK A01 T02040103  RH  053%=      5-min Rain = 0
KGDS 120700Z 14001KT 19/10 A3003 RMK A01 T01930104  RH  057%=      5-min Rain = 0
KGDS 120705Z 14001KT 19/11 A3003 RMK A01 T01860105  RH  060%=      5-min Rain = 0
KGDS 120710Z 14000KT 18/10 A3003 RMK A01 T01830104  RH  061%=      5-min Rain = 0
KGDS 120715Z 00000KT 18/11 A3003 RMK A01 T01820105  RH  062%=      5-min Rain = 0
KGDS 120720Z 00000KT 18/11 A3003 RMK A01 T01830105  RH  062%=      5-min Rain = 0
KGDS 120725Z 00000KT 18/10 A3003 RMK A01 T01820104  RH  062%=      5-min Rain = 0
KGDS 120730Z 00000KT 18/11 A3003 RMK A01 T01800105  RH  062%=      5-min Rain = 0
KGDS 120735Z 00000KT 18/11 A3003 RMK A01 T01810106  RH  062%=      5-min Rain = 0
KGDS 120740Z 00000KT 18/11 A3003 RMK A01 T01830105  RH  062%=      5-min Rain = 0
KGDS 120745Z 26001KT 19/11 A3003 RMK A01 T01880105  RH  059%=      5-min Rain = 0
KGDS 120750Z 26002KT 19/10 A3003 RMK A01 T01860103  RH  059%=      5-min Rain = 0
KGDS 120755Z 27001KT 18/10 A3003 RMK A01 T01830103  RH  061%=      5-min Rain = 0
KGDS 120800Z 31001KT 18/10 A3003 RMK A01 T01810101  RH  061%=      5-min Rain = 0
KGDS 120805Z 34003KT 17/10 A3003 RMK A01 T01730101  RH  064%=      5-min Rain = 0
KGDS 120810Z 34003KT 17/10 A3003 RMK A01 T01680103  RH  067%=      5-min Rain = 0
KGDS 120815Z 33003KT 17/10 A3003 RMK A01 T01660104  RH  068%=      5-min Rain = 0
KGDS 120820Z 33003KT 17/11 A3003 RMK A01 T01660105  RH  069%=      5-min Rain = 0
KGDS 120825Z 35003KT 17/11 A3002 RMK A01 T01660106  RH  069%=      5-min Rain = 0
KGDS 120830Z 34004KT 17/11 A3002 RMK A01 T01660107  RH  069%=      5-min Rain = 0
KGDS 120835Z 34004KT 17/11 A3002 RMK A01 T01650106  RH  069%=      5-min Rain = 0
KGDS 120840Z 32004KT 17/11 A3002 RMK A01 T01650105  RH  069%=      5-min Rain = 0
KGDS 120845Z 31004KT 17/11 A3002 RMK A01 T01660107  RH  069%=      5-min Rain = 0
KGDS 120850Z 31004KT 17/11 A3002 RMK A01 T01690105  RH  067%=      5-min Rain = 0
KGDS 120855Z 31004KT 17/10 A3002 RMK A01 T01690104  RH  067%=      5-min Rain = 0
KGDS 120900Z 31004KT 17/10 A3002 RMK A01 T01690104  RH  067%=      5-min Rain = 0
KGDS 120905Z 31004KT 17/11 A3002 RMK A01 T01680105  RH  067%=      5-min Rain = 0
KGDS 120910Z 31004KT 17/11 A3002 RMK A01 T01680106  RH  068%=      5-min Rain = 0
KGDS 120915Z 30004KT 17/11 A3002 RMK A01 T01690106  RH  068%=      5-min Rain = 0
KGDS 120920Z 29004KT 17/11 A3002 RMK A01 T01700108  RH  068%=      5-min Rain = 0
KGDS 120925Z 29004KT 17/11 A3002 RMK A01 T01720108  RH  067%=      5-min Rain = 0
KGDS 120930Z 29003KT 17/11 A3002 RMK A01 T01720107  RH  067%=      5-min Rain = 0
KGDS 120935Z 30003KT 17/11 A3002 RMK A01 T01710105  RH  066%=      5-min Rain = 0
KGDS 120940Z 30004KT 17/10 A3001 RMK A01 T01700104  RH  066%=      5-min Rain = 0
KGDS 120945Z 30004KT 17/10 A3001 RMK A01 T01690104  RH  066%=      5-min Rain = 0
KGDS 120950Z 30004KT 17/10 A3001 RMK A01 T01690103  RH  066%=      5-min Rain = 0
KGDS 120955Z 30005KT 17/10 A3001 RMK A01 T01700104  RH  066%=      5-min Rain = 0
KGDS 121000Z 30005KT 17/11 A3001 RMK A01 T01720105  RH  066%=      5-min Rain = 0
KGDS 121005Z 30005KT 17/11 A3001 RMK A01 T01730105  RH  065%=      5-min Rain = 0
KGDS 121010Z 31005KT 17/10 A3001 RMK A01 T01720104  RH  065%=      5-min Rain = 0
KGDS 121015Z 30006KT 17/10 A3001 RMK A01 T01730103  RH  065%=      5-min Rain = 0
KGDS 121020Z 31006KT 17/10 A3002 RMK A01 T01710104  RH  066%=      5-min Rain = 0
KGDS 121025Z 31005KT 17/10 A3002 RMK A01 T01680104  RH  067%=      5-min Rain = 0
KGDS 121030Z 31005KT 17/11 A3002 RMK A01 T01660105  RH  068%=      5-min Rain = 0
KGDS 121035Z 31004KT 17/11 A3002 RMK A01 T01650105  RH  069%=      5-min Rain = 0
KGDS 121040Z 31004KT 17/11 A3002 RMK A01 T01660105  RH  068%=      5-min Rain = 0
KGDS 121045Z 31003KT 17/11 A3002 RMK A01 T01680105  RH  068%=      5-min Rain = 0
KGDS 121050Z 33003KT 17/11 A3002 RMK A01 T01680105  RH  067%=      5-min Rain = 0
KGDS 121055Z 34003KT 17/11 A3002 RMK A01 T01670105  RH  068%=      5-min Rain = 0
KGDS 121100Z 34004KT 16/10 A3002 RMK A01 T01640104  RH  069%=      5-min Rain = 0
KGDS 121105Z 33004KT 16/10 A3002 RMK A01 T01630104  RH  070%=      5-min Rain = 0
KGDS 121110Z 34005KT 16/10 A3002 RMK A01 T01640104  RH  069%=      5-min Rain = 0
KGDS 121115Z 34004KT 17/10 A3002 RMK A01 T01650104  RH  068%=      5-min Rain = 0
KGDS 121120Z 34005KT 16/10 A3002 RMK A01 T01640104  RH  068%=      5-min Rain = 0
KGDS 121125Z 34004KT 16/10 A3002 RMK A01 T01640104  RH  069%=      5-min Rain = 0
KGDS 121130Z 34004KT 16/10 A3002 RMK A01 T01590103  RH  070%=      5-min Rain = 0
KGDS 121135Z 35004KT 16/10 A3002 RMK A01 T01560103  RH  072%=      5-min Rain = 0
KGDS 121140Z 35005KT 15/10 A3002 RMK A01 T01500103  RH  075%=      5-min Rain = 0
KGDS 121145Z 35005KT 15/10 A3002 RMK A01 T01480104  RH  076%=      5-min Rain = 0
KGDS 121150Z 36005KT 15/10 A3002 RMK A01 T01500104  RH  075%=      5-min Rain = 0
KGDS 121155Z 35005KT 15/10 A3002 RMK A01 T01520104  RH  075%=      5-min Rain = 0
KGDS 121200Z 35004KT 15/10 A3002 RMK A01 T01530104  RH  074%=      5-min Rain = 0
KGDS 121205Z 34003KT 15/10 A3002 RMK A01 T01530104  RH  074%=      5-min Rain = 0
KGDS 121210Z 33001KT 15/10 A3002 RMK A01 T01540104  RH  074%=      5-min Rain = 0
KGDS 121215Z 34002KT 16/10 A3002 RMK A01 T01560104  RH  072%=      5-min Rain = 0
KGDS 121220Z 35002KT 16/10 A3002 RMK A01 T01580103  RH  071%=      5-min Rain = 0
KGDS 121225Z 35003KT 16/10 A3002 RMK A01 T01600104  RH  071%=      5-min Rain = 0
KGDS 121230Z 36002KT 16/10 A3002 RMK A01 T01590103  RH  071%=      5-min Rain = 0
KGDS 121235Z 00000KT 16/10 A3002 RMK A01 T01570104  RH  072%=      5-min Rain = 0
KGDS 121240Z 00000KT 15/10 A3002 RMK A01 T01530102  RH  073%=      5-min Rain = 0
KGDS 121245Z 00000KT 15/10 A3002 RMK A01 T01500102  RH  074%=      5-min Rain = 0
KGDS 121250Z 00000KT 15/10 A3002 RMK A01 T01500102  RH  074%=      5-min Rain = 0
KGDS 121255Z 00000KT 15/10 A3002 RMK A01 T01530103  RH  073%=      5-min Rain = 0
KGDS 121300Z 00000KT 16/11 A3002 RMK A01 T01560105  RH  073%=      5-min Rain = 0
KGDS 121305Z 00000KT 16/11 A3002 RMK A01 T01590105  RH  071%=      5-min Rain = 0
KGDS 121310Z 00000KT 16/11 A3002 RMK A01 T01630106  RH  070%=      5-min Rain = 0
KGDS 121315Z 00000KT 17/11 A3002 RMK A01 T01650105  RH  069%=      5-min Rain = 0
KGDS 121320Z 00000KT 17/11 A3002 RMK A01 T01670106  RH  068%=      5-min Rain = 0
KGDS 121325Z 00000KT 17/11 A3002 RMK A01 T01710107  RH  067%=      5-min Rain = 0
KGDS 121330Z 00000KT 18/11 A3002 RMK A01 T01770111  RH  066%=      5-min Rain = 0
KGDS 121335Z 09000KT 18/11 A3002 RMK A01 T01800113  RH  066%=      5-min Rain = 0
KGDS 121340Z 09000KT 18/11 A3002 RMK A01 T01820112  RH  065%=      5-min Rain = 0
KGDS 121345Z 08001KT 19/11 A3002 RMK A01 T01850114  RH  064%=      5-min Rain = 0
KGDS 121350Z 07000KT 19/11 A3002 RMK A01 T01880114  RH  063%=      5-min Rain = 0
KGDS 121355Z 07001KT 19/11 A3002 RMK A01 T01900113  RH  062%=      5-min Rain = 0
KGDS 121400Z 06001KT 19/11 A3002 RMK A01 T01920114  RH  062%=      5-min Rain = 0
KGDS 121405Z 06001KT 20/11 A3002 RMK A01 T01950114  RH  060%=      5-min Rain = 0
KGDS 121410Z 05000KT 20/11 A3002 RMK A01 T01970114  RH  060%=      5-min Rain = 0
KGDS 121415Z 00000KT 20/12 A3002 RMK A01 T02030116  RH  058%=      5-min Rain = 0
KGDS 121420Z 04000KT 21/12 A3002 RMK A01 T02090116  RH  056%=      5-min Rain = 0
KGDS 121425Z 00000KT 21/12 A3002 RMK A01 T02140116  RH  055%=      5-min Rain = 0
KGDS 121430Z 00000KT 22/12 A3002 RMK A01 T02200115  RH  052%=      5-min Rain = 0
KGDS 121435Z 00000KT 22/11 A3002 RMK A01 T02230114  RH  051%=      5-min Rain = 0
KGDS 121440Z 00000KT 23/12 A3002 RMK A01 T02270115  RH  050%=      5-min Rain = 0
KGDS 121445Z 09001KT 23/12 A3002 RMK A01 T02320115  RH  048%=      5-min Rain = 0
KGDS 121450Z 08001KT 23/11 A3002 RMK A01 T02310113  RH  048%=      5-min Rain = 0
KGDS 121455Z 05000KT 23/11 A3002 RMK A01 T02340110  RH  046%=      5-min Rain = 0
KGDS 121500Z 02000KT 24/11 A3002 RMK A01 T02360108  RH  045%=      5-min Rain = 0
KGDS 121505Z 20000KT 24/11 A3002 RMK A01 T02430112  RH  045%=      5-min Rain = 0
KGDS 121510Z 22001KT 25/11 A3002 RMK A01 T02480108  RH  042%=      5-min Rain = 0
KGDS 121515Z 22002KT 25/11 A3002 RMK A01 T02460105  RH  042%=      5-min Rain = 0
KGDS 121520Z 22003KT 25/11 A3001 RMK A01 T02460107  RH  042%=      5-min Rain = 0
KGDS 121525Z 24004KT 25/11 A3001 RMK A01 T02470106  RH  042%=      5-min Rain = 0
KGDS 121530Z 23003KT 25/11 A3001 RMK A01 T02500106  RH  041%=      5-min Rain = 0
KGDS 121535Z 24004KT 25/10 A3001 RMK A01 T02540102  RH  039%=      5-min Rain = 0
KGDS 121540Z 24005KT 25/10 A3002 RMK A01 T02540098  RH  038%=      5-min Rain = 0
KGDS 121545Z 24005KT 26/10 A3001 RMK A01 T02570100  RH  038%=      5-min Rain = 0
KGDS 121550Z 23005KT 26/10 A3001 RMK A01 T02570099  RH  038%=      5-min Rain = 0
KGDS 121555Z 24005KT 26/10 A3001 RMK A01 T02550098  RH  038%=      5-min Rain = 0
KGDS 121600Z 22005KT 26/10 A3001 RMK A01 T02580095  RH  036%=      5-min Rain = 0
KGDS 121605Z 23004KT 26/10 A3001 RMK A01 T02620099  RH  036%=      5-min Rain = 0
KGDS 121610Z 20004KT 27/10 A3001 RMK A01 T02660099  RH  035%=      5-min Rain = 0
KGDS 121615Z 20004KT 26/10 A3001 RMK A01 T02640103  RH  037%=      5-min Rain = 0
KGDS 121620Z 21003KT 27/11 A3001 RMK A01 T02680105  RH  037%=      5-min Rain = 0
KGDS 121625Z 17003KT 27/11 A3001 RMK A01 T02710105  RH  036%=      5-min Rain = 0
KGDS 121630Z 20002KT 28/10 A3001 RMK A01 T02760102  RH  034%=      5-min Rain = 0
KGDS 121640Z 35000KT 27/10 A30 RMK A01 T02740098  RH  034%=      5-min Rain = 0
KGDS 121645Z 23002KT 28/10 A30 RMK A01 T02790098  RH  033%=      5-min Rain = 0
KGDS 121650Z 23002KT 28/10 A30 RMK A01 T02790099  RH  033%=      5-min Rain = 0
KGDS 121655Z 18002KT 28/10 A30 RMK A01 T02810099  RH  032%=      5-min Rain = 0
KGDS 121700Z 24001KT 29/10 A30 RMK A01 T02850097  RH  032%=      5-min Rain = 0
KGDS 121705Z 15002KT 29/10 A2999 RMK A01 T02860098  RH  032%=      5-min Rain = 0
KGDS 121710Z 35001KT 28/10 A2999 RMK A01 T02820098  RH  032%=      5-min Rain = 0
KGDS 121715Z 33001KT 29/10 A2999 RMK A01 T02860097  RH  031%=      5-min Rain = 0
KGDS 121720Z 04003G9KT 29/10 A2999 RMK A01 T02870098  RH  031%=      5-min Rain = 0
KGDS 121725Z 14002KT 29/10 A2998 RMK A01 T02930100  RH  031%=      5-min Rain = 0
KGDS 121730Z 15001KT 30/10 A2998 RMK A01 T02960099  RH  030%=      5-min Rain = 0
KGDS 121735Z 14003KT 30/10 A2998 RMK A01 T02960100  RH  030%=      5-min Rain = 0
KGDS 121740Z 18002KT 29/10 A2998 RMK A01 T02910098  RH  031%=      5-min Rain = 0
KGDS 121745Z 23001KT 29/10 A2998 RMK A01 T02870097  RH  031%=      5-min Rain = 0
KGDS 121750Z 19001KT 29/10 A2998 RMK A01 T02900098  RH  031%=      5-min Rain = 0
KGDS 121755Z 09002KT 30/10 A2998 RMK A01 T02950099  RH  030%=      5-min Rain = 0
KGDS 121800Z 18002KT 29/10 A2997 RMK A01 T02930098  RH  030%=      5-min Rain = 0
KGDS 121805Z 10002KT 29/10 A2997 RMK A01 T02940098  RH  030%=      5-min Rain = 0
KGDS 121810Z 09003KT 30/10 A2997 RMK A01 T02990100  RH  030%=      5-min Rain = 0
KGDS 121815Z 07004KT 30/10 A2997 RMK A01 T02950098  RH  030%=      5-min Rain = 0
KGDS 121820Z 09001KT 29/10 A2997 RMK A01 T02940098  RH  030%=      5-min Rain = 0
KGDS 121825Z 13003KT 30/10 A2997 RMK A01 T03010100  RH  029%=      5-min Rain = 0
KGDS 121830Z 10006G11KT 30/10 A2996 RMK A01 T02990101  RH  030%=      5-min Rain = 0
KGDS 121835Z 11002G7KT 30/10 A2996 RMK A01 T02970100  RH  030%=      5-min Rain = 0
KGDS 121840Z 17003KT 30/10 A2995 RMK A01 T03000101  RH  030%=      5-min Rain = 0
KGDS 121845Z 17003KT 30/10 A2995 RMK A01 T03040103  RH  029%=      5-min Rain = 0
KGDS 121850Z 23003KT 31/10 A2995 RMK A01 T03070100  RH  028%=      5-min Rain = 0
KGDS 121855Z 20001KT 31/10 A2995 RMK A01 T03050100  RH  028%=      5-min Rain = 0
KGDS 121900Z 28001KT 31/10 A2994 RMK A01 T03050099  RH  028%=      5-min Rain = 0
KGDS 121905Z 19002KT 32/10 A2994 RMK A01 T03150102  RH  027%=      5-min Rain = 0
KGDS 121910Z 14003KT 32/10 A2994 RMK A01 T03150102  RH  027%=      5-min Rain = 0
KGDS 121915Z 14005KT 31/10 A2994 RMK A01 T03120102  RH  028%=      5-min Rain = 0
KGDS 121920Z 16002KT 31/10 A2993 RMK A01 T03110101  RH  028%=      5-min Rain = 0
KGDS 121925Z 09002KT 32/10 A2993 RMK A01 T03170101  RH  027%=      5-min Rain = 0
KGDS 121930Z 10005KT 31/10 A2993 RMK A01 T03130101  RH  027%=      5-min Rain = 0
KGDS 121935Z 15002KT 32/10 A2992 RMK A01 T03150100  RH  027%=      5-min Rain = 0
KGDS 121940Z 06001KT 32/10 A2992 RMK A01 T03190100  RH  026%=      5-min Rain = 0
KGDS 121945Z 03006KT 32/10 A2992 RMK A01 T03230099  RH  026%=      5-min Rain = 0
KGDS 121950Z 04005KT 32/10 A2992 RMK A01 T03170097  RH  026%=      5-min Rain = 0
KGDS 121955Z 06005KT 32/10 A2991 RMK A01 T03190099  RH  026%=      5-min Rain = 0
KGDS 122000Z 36005KT 32/09 A2991 RMK A01 T03180094  RH  025%=      5-min Rain = 0
KGDS 122005Z 04006G12KT 32/10 A2991 RMK A01 T03190097  RH  026%=      5-min Rain = 0
KGDS 122010Z 03006KT 32/10 A299 RMK A01 T03210098  RH  026%=      5-min Rain = 0
KGDS 122015Z 35002KT 32/09 A299 RMK A01 T03200090  RH  025%=      5-min Rain = 0
KGDS 122020Z 13003KT 33/10 A299 RMK A01 T03260095  RH  024%=      5-min Rain = 0
KGDS 122025Z 04007KT 32/10 A299 RMK A01 T03230096  RH  025%=      5-min Rain = 0
KGDS 122030Z 07005KT 32/10 A2989 RMK A01 T03220095  RH  025%=      5-min Rain = 0
KGDS 122035Z 05008G15KT 33/09 A2989 RMK A01 T03250093  RH  024%=      5-min Rain = 0
KGDS 122040Z 07007KT 32/09 A2989 RMK A01 T03210091  RH  025%=      5-min Rain = 0
KGDS 122045Z 07004G9KT 32/09 A2989 RMK A01 T03220092  RH  025%=      5-min Rain = 0
KGDS 122050Z 05006KT 32/09 A2989 RMK A01 T03240090  RH  024%=      5-min Rain = 0
KGDS 122055Z 08005KT 32/09 A2989 RMK A01 T03220089  RH  024%=      5-min Rain = 0
KGDS 122100Z 06007G13KT 32/09 A2988 RMK A01 T03230086  RH  024%=      5-min Rain = 0
KGDS 122105Z 07007KT 32/09 A2988 RMK A01 T03240085  RH  023%=      5-min Rain = 0
KGDS 122110Z 08006G11KT 32/09 A2988 RMK A01 T03220086  RH  024%=      5-min Rain = 0
KGDS 122115Z 07007KT 32/09 A2988 RMK A01 T03230085  RH  023%=      5-min Rain = 0
KGDS 122120Z 08007KT 32/09 A2988 RMK A01 T03210086  RH  024%=      5-min Rain = 0
KGDS 122125Z 09009KT 32/09 A2988 RMK A01 T03240087  RH  023%=      5-min Rain = 0
KGDS 122130Z 07008KT 32/09 A2988 RMK A01 T03240086  RH  023%=      5-min Rain = 0
KGDS 122135Z 04004KT 32/08 A2987 RMK A01 T03200084  RH  024%=      5-min Rain = 0
KGDS 122140Z 04008KT 32/08 A2987 RMK A01 T03170084  RH  024%=      5-min Rain = 0
KGDS 122145Z 03007KT 32/08 A2987 RMK A01 T03150081  RH  024%=      5-min Rain = 0
KGDS 122150Z 03005KT 32/08 A2987 RMK A01 T03170081  RH  024%=      5-min Rain = 0
KGDS 122155Z 05007KT 32/08 A2987 RMK A01 T03240080  RH  022%=      5-min Rain = 0
KGDS 122200Z 07006KT 32/08 A2987 RMK A01 T03210078  RH  022%=      5-min Rain = 0
KGDS 122205Z 06007G16KT 32/08 A2986 RMK A01 T03230078  RH  022%=      5-min Rain = 0
KGDS 122210Z 04006G11KT 32/08 A2986 RMK A01 T03230078  RH  022%=      5-min Rain = 0
KGDS 122215Z 05007G12KT 33/08 A2986 RMK A01 T03250078  RH  022%=      5-min Rain = 0
KGDS 122220Z 08005KT 32/08 A2986 RMK A01 T03240077  RH  022%=      5-min Rain = 0
KGDS 122225Z 05007KT 33/08 A2986 RMK A01 T03260079  RH  022%=      5-min Rain = 0
KGDS 122230Z 05008KT 32/08 A2986 RMK A01 T03230077  RH  022%=      5-min Rain = 0
KGDS 122235Z 07007KT 32/08 A2986 RMK A01 T03200079  RH  023%=      5-min Rain = 0
KGDS 122240Z 06009KT 32/08 A2985 RMK A01 T03210077  RH  022%=      5-min Rain = 0
KGDS 122245Z 08009KT 32/08 A2986 RMK A01 T03200075  RH  022%=      5-min Rain = 0
KGDS 122250Z 07008KT 32/08 A2985 RMK A01 T03200077  RH  022%=      5-min Rain = 0
KGDS 122255Z 05007KT 32/08 A2985 RMK A01 T03200079  RH  023%=      5-min Rain = 0
KGDS 122300Z 06007KT 32/08 A2985 RMK A01 T03200076  RH  022%=      5-min Rain = 0
KGDS 122305Z 07008KT 32/08 A2985 RMK A01 T03190077  RH  022%=      5-min Rain = 0
KGDS 122310Z 06005KT 32/08 A2985 RMK A01 T03180079  RH  023%=      5-min Rain = 0
KGDS 122315Z 07007KT 32/08 A2985 RMK A01 T03180077  RH  023%=      5-min Rain = 0
KGDS 122320Z 07004G10KT 32/08 A2985 RMK A01 T03160077  RH  023%=      5-min Rain = 0
KGDS 122325Z 06006KT 32/08 A2985 RMK A01 T03150081  RH  024%=      5-min Rain = 0
KGDS 122330Z 07005KT 31/08 A2985 RMK A01 T03140083  RH  024%=      5-min Rain = 0
KGDS 122335Z 07007KT 31/09 A2985 RMK A01 T03120086  RH  025%=      5-min Rain = 0
KGDS 122340Z 06007KT 31/09 A2985 RMK A01 T03130087  RH  025%=      5-min Rain = 0
KGDS 122345Z 05006KT 31/09 A2985 RMK A01 T03140090  RH  025%=      5-min Rain = 0
KGDS 122350Z 07009KT 31/09 A2985 RMK A01 T03130088  RH  025%=      5-min Rain = 0
KGDS 122355Z 06010KT 31/08 A2985 RMK A01 T03100083  RH  025%=      5-min Rain = 0
KGDS 130000Z 07008KT 31/08 A2985 RMK A01 T03070081  RH  025%=      5-min Rain = 0
KGDS 130005Z 07010KT 31/08 A2985 RMK A01 T03060083  RH  025%=      5-min Rain = 0
KGDS 130010Z 06010KT 30/09 A2985 RMK A01 T03020086  RH  026%=      5-min Rain = 0
KGDS 130015Z 06009KT 30/09 A2985 RMK A01 T03000087  RH  027%=      5-min Rain = 0
KGDS 130020Z 08008G13KT 30/09 A2985 RMK A01 T02980091  RH  028%=      5-min Rain = 0
KGDS 130025Z 08009KT 30/10 A2985 RMK A01 T02950096  RH  030%=      5-min Rain = 0
KGDS 130030Z 08009KT 29/10 A2985 RMK A01 T02920097  RH  030%=      5-min Rain = 0
KGDS 130035Z 07009KT 29/10 A2985 RMK A01 T02880096  RH  030%=      5-min Rain = 0
KGDS 130040Z 08009KT 29/09 A2985 RMK A01 T02850094  RH  031%=      5-min Rain = 0
KGDS 130045Z 08009KT 28/09 A2985 RMK A01 T02820094  RH  031%=      5-min Rain = 0
KGDS 130050Z 08008KT 28/09 A2984 RMK A01 T02790093  RH  032%=      5-min Rain = 0
KGDS 130055Z 08007KT 28/09 A2984 RMK A01 T02760093  RH  032%=      5-min Rain = 0
KGDS 130100Z 08006KT 27/09 A2984 RMK A01 T02720094  RH  033%=      5-min Rain = 0
KGDS 130105Z 08007KT 27/09 A2984 RMK A01 T02690093  RH  034%=      5-min Rain = 0
KGDS 130110Z 08007KT 27/09 A2985 RMK A01 T02680093  RH  034%=      5-min Rain = 0
KGDS 130115Z 08007KT 27/09 A2985 RMK A01 T02660093  RH  034%=      5-min Rain = 0
KGDS 130120Z 08006KT 26/10 A2985 RMK A01 T02630095  RH  035%=      5-min Rain = 0
KGDS 130125Z 08006KT 26/10 A2985 RMK A01 T02580097  RH  037%=      5-min Rain = 0
KGDS 130130Z 08006KT 26/10 A2985 RMK A01 T02550098  RH  038%=      5-min Rain = 0
KGDS 130135Z 09006KT 25/10 A2985 RMK A01 T02540098  RH  038%=      5-min Rain = 0
KGDS 130140Z 09006KT 25/10 A2985 RMK A01 T02530098  RH  038%=      5-min Rain = 0
KGDS 130145Z 09006KT 25/10 A2985 RMK A01 T02520097  RH  038%=      5-min Rain = 0
KGDS 130150Z 09005KT 25/10 A2985 RMK A01 T02490097  RH  039%=      5-min Rain = 0
KGDS 130155Z 10005KT 25/10 A2985 RMK A01 T02470097  RH  039%=      5-min Rain = 0
KGDS 130200Z 10005KT 25/10 A2985 RMK A01 T02460096  RH  039%=      5-min Rain = 0
KGDS 130205Z 10005KT 25/10 A2986 RMK A01 T02470096  RH  039%=      5-min Rain = 0
KGDS 130210Z 10005KT 25/10 A2986 RMK A01 T02490096  RH  038%=      5-min Rain = 0
KGDS 130215Z 10005KT 25/10 A2986 RMK A01 T02490096  RH  039%=      5-min Rain = 0
KGDS 130220Z 10006KT 25/10 A2986 RMK A01 T02460095  RH  039%=      5-min Rain = 0
KGDS 130225Z 09009G14KT 24/10 A2986 RMK A01 T02440095  RH  039%=      5-min Rain = 0
KGDS 130230Z 07008KT 25/09 A2987 RMK A01 T02510094  RH  038%=      5-min Rain = 0
KGDS 130235Z 07007KT 24/10 A2987 RMK A01 T02430100  RH  041%=      5-min Rain = 0
KGDS 130240Z 08008KT 24/10 A2987 RMK A01 T02410100  RH  042%=      5-min Rain = 0
KGDS 130245Z 08007KT 24/10 A2987 RMK A01 T02400101  RH  042%=      5-min Rain = 0
KGDS 130250Z 08007KT 24/10 A2987 RMK A01 T02380101  RH  043%=      5-min Rain = 0
KGDS 130255Z 08007KT 24/10 A2987 RMK A01 T02350102  RH  043%=      5-min Rain = 0
KGDS 130300Z 09007KT 23/10 A2987 RMK A01 T02340102  RH  044%=      5-min Rain = 0
KGDS 130305Z 09007KT 23/10 A2987 RMK A01 T02330101  RH  044%=      5-min Rain = 0
KGDS 130310Z 09006KT 23/10 A2987 RMK A01 T02330101  RH  044%=      5-min Rain = 0
KGDS 130315Z 09006KT 23/10 A2987 RMK A01 T02320101  RH  044%=      5-min Rain = 0
KGDS 130320Z 09006KT 23/10 A2987 RMK A01 T02330100  RH  044%=      5-min Rain = 0
KGDS 130325Z 10006KT 23/10 A2987 RMK A01 T02330100  RH  044%=      5-min Rain = 0
KGDS 130330Z 10006KT 23/10 A2987 RMK A01 T02320099  RH  044%=      5-min Rain = 0
KGDS 130335Z 11005KT 23/10 A2987 RMK A01 T02290100  RH  045%=      5-min Rain = 0
KGDS 130340Z 12005KT 23/10 A2987 RMK A01 T02260101  RH  046%=      5-min Rain = 0
KGDS 130345Z 13003KT 22/10 A2988 RMK A01 T02230100  RH  046%=      5-min Rain = 0
KGDS 130350Z 14003KT 22/10 A2988 RMK A01 T02210096  RH  046%=      5-min Rain = 0
KGDS 130355Z 14003KT 22/10 A2987 RMK A01 T02230096  RH  045%=      5-min Rain = 0
KGDS 130400Z 13004KT 22/10 A2987 RMK A01 T02240097  RH  045%=      5-min Rain = 0
KGDS 130405Z 13004KT 22/10 A2987 RMK A01 T02230098  RH  046%=      5-min Rain = 0
KGDS 130410Z 12004KT 22/10 A2988 RMK A01 T02210099  RH  046%=      5-min Rain = 0
KGDS 130415Z 12004KT 22/10 A2987 RMK A01 T02190097  RH  047%=      5-min Rain = 0
KGDS 130420Z 12005KT 22/10 A2987 RMK A01 T02180098  RH  047%=      5-min Rain = 0
KGDS 130425Z 12005KT 22/10 A2987 RMK A01 T02150101  RH  049%=      5-min Rain = 0
KGDS 130430Z 12005KT 21/10 A2988 RMK A01 T02140102  RH  050%=      5-min Rain = 0
KGDS 130435Z 12005KT 21/10 A2988 RMK A01 T02130103  RH  050%=      5-min Rain = 0
KGDS 130440Z 12005KT 21/10 A2987 RMK A01 T02130103  RH  050%=      5-min Rain = 0
KGDS 130445Z 12004KT 21/10 A2987 RMK A01 T02120103  RH  050%=      5-min Rain = 0
KGDS 130450Z 12004KT 21/10 A2987 RMK A01 T02120102  RH  050%=      5-min Rain = 0
KGDS 130455Z 12004KT 21/10 A2987 RMK A01 T02130102  RH  050%=      5-min Rain = 0

Page generated in 0.009 seconds.